createdAt,value
2019-04-16T00:04:31.185Z,89.40
2019-04-16T00:09:39.540Z,89.30
2019-04-16T00:14:47.949Z,90.50
2019-04-16T00:19:51.557Z,90.70
2019-04-16T00:24:55.728Z,90.40
2019-04-16T00:30:04.117Z,90.10
2019-04-16T00:35:05.980Z,90.40
2019-04-16T00:40:09.922Z,90.40
2019-04-16T00:45:13.748Z,90.70
2019-04-16T00:50:17.686Z,90.70
2019-04-16T00:55:21.417Z,90.40
2019-04-16T01:00:27.707Z,90.60
2019-04-16T01:05:35.031Z,90.80
2019-04-16T01:10:36.210Z,91.10
2019-04-16T01:15:39.797Z,91.10
2019-04-16T01:20:44.048Z,91.30
2019-04-16T01:25:47.653Z,91.30
2019-04-16T01:30:53.373Z,91.40
2019-04-16T01:36:11.108Z,91.10
2019-04-16T01:41:16.411Z,91.50
2019-04-16T01:46:20.001Z,92.00
2019-04-16T01:51:23.658Z,92.30
2019-04-16T01:56:28.814Z,91.60
2019-04-16T02:01:33.102Z,90.70
2019-04-16T02:06:37.137Z,91.20
2019-04-16T02:11:41.465Z,91.30
2019-04-16T02:16:46.097Z,91.90
2019-04-16T02:21:50.045Z,92.20
2019-04-16T02:26:54.843Z,92.70
2019-04-16T02:31:59.179Z,92.60
2019-04-16T02:37:03.494Z,92.70
2019-04-16T02:42:07.309Z,92.70
2019-04-16T02:47:11.293Z,92.90
2019-04-16T02:52:34.381Z,92.90
2019-04-16T02:57:39.943Z,91.90
2019-04-16T03:02:48.136Z,92.80
2019-04-16T03:07:51.856Z,92.90
2019-04-16T03:12:55.898Z,93.00
2019-04-16T03:17:59.487Z,92.70
2019-04-16T03:23:06.111Z,92.50
2019-04-16T03:28:08.938Z,92.30
2019-04-16T03:33:14.803Z,91.70
2019-04-16T03:38:18.014Z,92.70
2019-04-16T03:43:21.623Z,92.60
2019-04-16T03:48:25.290Z,91.80
2019-04-16T03:53:29.338Z,92.00
2019-04-16T03:58:35.568Z,92.40
2019-04-16T04:03:38.672Z,92.30
2019-04-16T04:08:42.327Z,92.20
2019-04-16T04:13:49.680Z,91.90
2019-04-16T04:18:51.236Z,92.80
2019-04-16T04:23:57.508Z,92.70
2019-04-16T04:29:00.072Z,93.10
2019-04-16T04:34:04.144Z,92.90
2019-04-16T04:39:09.951Z,92.70
2019-04-16T04:44:12.991Z,92.00
2019-04-16T04:49:16.657Z,91.80
2019-04-16T04:54:22.353Z,91.80
2019-04-16T04:59:26.137Z,91.90
2019-04-16T05:04:31.441Z,92.50
2019-04-16T05:09:36.495Z,93.60
2019-04-16T05:14:42.063Z,92.90
2019-04-16T05:19:45.654Z,92.60
2019-04-16T05:24:49.248Z,93.10
2019-04-16T05:29:52.833Z,92.70
2019-04-16T05:34:56.459Z,92.30
2019-04-16T05:40:00.073Z,92.40
2019-04-16T05:45:06.297Z,92.10
2019-04-16T05:50:10.220Z,92.30
2019-04-16T05:55:19.362Z,92.10
2019-04-16T06:00:27.576Z,91.70
2019-04-16T06:05:31.252Z,91.40
2019-04-16T06:10:34.984Z,91.80
2019-04-16T06:15:56.737Z,91.60
2019-04-16T06:21:07.961Z,91.10
2019-04-16T06:26:22.124Z,90.70
2019-04-16T06:31:45.903Z,90.10
2019-04-16T06:36:56.858Z,90.00
2019-04-16T06:42:02.246Z,88.50
2019-04-16T06:47:11.116Z,88.20
2019-04-16T06:52:33.894Z,86.90
2019-04-16T06:57:45.299Z,86.00
2019-04-16T07:03:02.136Z,85.20
2019-04-16T07:07:59.997Z,85.70
2019-04-16T07:13:03.765Z,84.90
2019-04-16T07:18:07.353Z,84.30
2019-04-16T07:23:10.985Z,82.60
2019-04-16T07:28:32.679Z,79.40
2019-04-16T07:33:40.809Z,77.60
2019-04-16T07:38:52.077Z,77.50
2019-04-16T07:44:12.308Z,77.10
2019-04-16T07:49:33.553Z,74.40
2019-04-16T07:54:47.795Z,73.60
2019-04-16T07:59:51.389Z,73.80
2019-04-16T08:04:55.005Z,65.00
2019-04-16T08:10:02.051Z,62.90
2019-04-16T08:15:13.771Z,63.50
2019-04-16T08:20:10.156Z,64.10
2019-04-16T08:25:14.349Z,64.00
2019-04-16T08:30:18.008Z,61.40
2019-04-16T08:35:21.982Z,59.30
2019-04-16T08:40:25.649Z,57.80
2019-04-16T08:45:29.312Z,56.30
2019-04-16T08:50:32.914Z,55.90
2019-04-16T08:55:36.608Z,55.90
2019-04-16T09:00:45.907Z,54.30
2019-04-16T09:05:47.036Z,54.90
2019-04-16T09:10:50.712Z,53.60
2019-04-16T09:15:54.505Z,53.10
2019-04-16T09:20:58.172Z,52.50
2019-04-16T09:26:15.413Z,53.80
2019-04-16T09:31:31.116Z,53.00
2019-04-16T09:36:52.804Z,52.20
2019-04-16T09:41:56.478Z,51.60
2019-04-16T09:47:00.624Z,51.90
2019-04-16T09:52:04.252Z,51.90
2019-04-16T09:57:07.841Z,49.30
2019-04-16T10:02:13.147Z,49.90
2019-04-16T10:07:16.811Z,49.30
2019-04-16T10:12:20.471Z,49.20
2019-04-16T10:17:24.467Z,49.30
2019-04-16T10:22:29.533Z,48.30
2019-04-16T10:27:34.771Z,48.70
2019-04-16T10:32:38.451Z,50.30
2019-04-16T10:37:42.058Z,47.60
2019-04-16T10:43:03.703Z,47.70
2019-04-16T10:48:17.950Z,47.00
2019-04-16T10:53:39.447Z,44.30
2019-04-16T10:58:47.385Z,45.20
2019-04-16T11:03:55.553Z,46.20
2019-04-16T11:08:59.204Z,45.80
2019-04-16T11:14:02.871Z,46.70
2019-04-16T11:19:07.982Z,45.20
2019-04-16T11:24:11.821Z,45.60
2019-04-16T11:29:15.452Z,46.40
2019-04-16T11:34:19.126Z,45.80
2019-04-16T11:39:23.133Z,45.70
2019-04-16T11:44:27.145Z,45.00
2019-04-16T11:49:30.709Z,46.40
2019-04-16T11:54:34.383Z,46.90
2019-04-16T11:59:38.386Z,46.20
2019-04-16T12:04:43.822Z,46.50
2019-04-16T12:09:58.557Z,46.20
2019-04-16T12:15:03.936Z,43.90
2019-04-16T12:20:09.715Z,44.60
2019-04-16T12:25:31.804Z,44.50
2019-04-16T12:30:46.181Z,44.90
2019-04-16T12:35:57.959Z,47.10
2019-04-16T12:41:20.158Z,45.30
2019-04-16T12:46:25.528Z,46.10
2019-04-16T12:51:47.145Z,47.50
2019-04-16T13:02:24.887Z,48.80
2019-04-16T13:07:30.341Z,48.20
2019-04-16T13:12:51.747Z,48.70
2019-04-16T13:18:02.722Z,49.80
2019-04-16T13:23:10.410Z,49.10
2019-04-16T13:28:14.061Z,48.40
2019-04-16T13:33:17.729Z,49.10
2019-04-16T13:38:23.092Z,50.70
2019-04-16T13:43:46.726Z,49.60
2019-04-16T13:48:59.859Z,51.10
2019-04-16T13:54:08.669Z,50.40
2019-04-16T13:59:31.117Z,51.40
2019-04-16T14:04:36.957Z,51.50
2019-04-16T14:09:39.829Z,52.60
2019-04-16T14:14:43.641Z,54.10
2019-04-16T14:19:47.398Z,52.60
2019-04-16T14:24:51.141Z,52.60
2019-04-16T14:29:54.814Z,54.80
2019-04-16T14:35:00.807Z,55.00
2019-04-16T14:40:08.608Z,55.20
2019-04-16T14:45:19.854Z,55.20
2019-04-16T14:50:24.467Z,55.70
2019-04-16T14:55:32.542Z,55.20
2019-04-16T15:00:43.888Z,56.90
2019-04-16T15:06:00.751Z,57.30
2019-04-16T15:11:18.685Z,57.80
2019-04-16T15:16:26.976Z,57.70
2019-04-16T15:21:32.365Z,58.50
2019-04-16T15:26:40.664Z,58.70
2019-04-16T15:31:55.518Z,59.40
2019-04-16T15:37:06.784Z,60.70
2019-04-16T15:42:28.569Z,60.60
2019-04-16T15:47:33.910Z,61.00
2019-04-16T15:52:46.440Z,61.80
2019-04-16T15:58:09.731Z,63.40
2019-04-16T16:03:31.726Z,62.90
2019-04-16T16:08:37.432Z,64.00
2019-04-16T16:13:41.094Z,65.80
2019-04-16T16:18:44.774Z,66.70
2019-04-16T16:23:48.701Z,68.40
2019-04-16T16:28:52.450Z,70.10
2019-04-16T16:33:56.442Z,72.00
2019-04-16T16:39:00.015Z,75.00
2019-04-16T16:44:04.009Z,77.70
2019-04-16T16:49:07.754Z,78.80
2019-04-16T16:54:19.133Z,79.00
2019-04-16T16:59:24.372Z,79.20
2019-04-16T17:04:29.744Z,79.60
2019-04-16T17:09:34.353Z,81.90
2019-04-16T17:14:38.427Z,82.70
2019-04-16T17:19:42.162Z,84.20
2019-04-16T17:24:45.827Z,85.70
2019-04-16T17:29:50.885Z,83.40
2019-04-16T17:34:54.640Z,83.70
2019-04-16T17:40:00.262Z,84.30
2019-04-16T17:45:23.585Z,85.50
2019-04-16T17:50:29.280Z,84.70
2019-04-16T17:55:40.340Z,86.00
2019-04-16T18:01:01.187Z,88.50
2019-04-16T18:06:06.736Z,90.30
2019-04-16T18:11:17.943Z,90.50
2019-04-16T18:16:35.602Z,91.10
2019-04-16T18:21:41.050Z,91.40
2019-04-16T18:26:46.521Z,91.10
2019-04-16T18:31:52.488Z,91.40
2019-04-16T18:37:01.671Z,91.90
2019-04-16T18:42:07.160Z,91.00
2019-04-16T18:47:18.222Z,91.10
2019-04-16T18:52:22.083Z,91.50
2019-04-16T18:57:25.907Z,91.50
2019-04-16T19:02:30.923Z,91.60
2019-04-16T19:07:34.597Z,92.00
2019-04-16T19:12:38.595Z,91.90
2019-04-16T19:17:42.679Z,91.40
2019-04-16T19:22:46.497Z,92.50
2019-04-16T19:27:51.540Z,92.00
2019-04-16T19:33:00.171Z,92.50
2019-04-16T19:38:02.318Z,92.50
2019-04-16T19:43:05.892Z,92.10
2019-04-16T19:48:09.603Z,92.50
2019-04-16T19:53:14.958Z,93.00
2019-04-16T19:58:18.754Z,92.90
2019-04-16T20:03:22.539Z,93.20
2019-04-16T20:08:26.210Z,93.30
2019-04-16T20:13:30.244Z,93.00
2019-04-16T20:18:49.934Z,93.40
2019-04-16T20:23:39.910Z,93.20
2019-04-16T20:28:45.369Z,93.60
2019-04-16T20:33:48.889Z,94.10
2019-04-16T20:38:52.560Z,94.30
2019-04-16T20:43:56.193Z,94.50
2019-04-16T20:49:09.104Z,94.60
2019-04-16T20:54:05.375Z,94.30
2019-04-16T20:59:08.973Z,94.60
2019-04-16T21:04:13.096Z,94.50
2019-04-16T21:09:16.699Z,94.30
2019-04-16T21:14:21.781Z,94.10
2019-04-16T21:19:27.876Z,94.30
2019-04-16T21:24:31.918Z,94.50
2019-04-16T21:29:36.694Z,94.40
2019-04-16T21:34:48.357Z,94.30
2019-04-16T21:39:53.998Z,94.60
2019-04-16T21:44:58.105Z,94.50
2019-04-16T21:50:02.473Z,94.80
2019-04-16T21:55:07.329Z,94.90
2019-04-16T22:00:23.461Z,95.10
2019-04-16T22:05:27.218Z,94.80
2019-04-16T22:10:30.812Z,94.90
2019-04-16T22:15:34.694Z,94.70
2019-04-16T22:20:38.439Z,95.30
2019-04-16T22:25:42.046Z,95.20
2019-04-16T22:30:45.771Z,95.60
2019-04-16T22:35:51.049Z,96.00
2019-04-16T22:40:59.501Z,96.20
2019-04-16T22:46:04.878Z,95.80
2019-04-16T22:51:10.404Z,95.90
2019-04-16T22:56:13.785Z,95.70
2019-04-16T23:01:19.187Z,95.60
2019-04-16T23:06:23.211Z,96.00
2019-04-16T23:11:26.950Z,95.90
2019-04-16T23:16:30.549Z,95.70
2019-04-16T23:21:34.582Z,95.40
2019-04-16T23:26:38.241Z,95.30
2019-04-16T23:31:41.919Z,95.40
2019-04-16T23:36:48.617Z,95.50
2019-04-16T23:41:51.003Z,95.60
2019-04-16T23:46:59.049Z,95.50
2019-04-16T23:52:13.294Z,95.80
2019-04-16T23:57:27.347Z,95.60
